sensor_id;sensor_type;location;lat;lon;timestamp;temperature;humidity
47857;DHT22;33618;49.972;8.242;2023-10-09T00:01:07;15.50;99.90
47857;DHT22;33618;49.972;8.242;2023-10-09T00:03:42;15.60;99.90
47857;DHT22;33618;49.972;8.242;2023-10-09T00:06:10;15.70;99.80
47857;DHT22;33618;49.972;8.242;2023-10-09T00:08:40;15.80;99.50
47857;DHT22;33618;49.972;8.242;2023-10-09T00:11:12;15.60;98.90
47857;DHT22;33618;49.972;8.242;2023-10-09T00:13:46;15.40;99.60
47857;DHT22;33618;49.972;8.242;2023-10-09T00:16:21;15.30;99.90
47857;DHT22;33618;49.972;8.242;2023-10-09T00:19:07;15.40;99.90
47857;DHT22;33618;49.972;8.242;2023-10-09T00:22:00;15.50;99.90
47857;DHT22;33618;49.972;8.242;2023-10-09T00:24:46;15.50;99.90
47857;DHT22;33618;49.972;8.242;2023-10-09T00:27:17;15.50;99.50
47857;DHT22;33618;49.972;8.242;2023-10-09T00:29:47;15.30;99.70
47857;DHT22;33618;49.972;8.242;2023-10-09T00:32:16;15.20;99.90
47857;DHT22;33618;49.972;8.242;2023-10-09T00:34:43;15.20;99.90
47857;DHT22;33618;49.972;8.242;2023-10-09T00:37:11;15.30;99.90
47857;DHT22;33618;49.972;8.242;2023-10-09T00:39:49;15.40;99.90
47857;DHT22;33618;49.972;8.242;2023-10-09T00:42:24;15.60;99.90
47857;DHT22;33618;49.972;8.242;2023-10-09T00:44:57;15.60;99.90
47857;DHT22;33618;49.972;8.242;2023-10-09T00:47:31;15.50;99.90
47857;DHT22;33618;49.972;8.242;2023-10-09T00:50:07;15.60;99.90
47857;DHT22;33618;49.972;8.242;2023-10-09T00:52:38;15.60;99.90
47857;DHT22;33618;49.972;8.242;2023-10-09T00:55:07;15.70;99.90
47857;DHT22;33618;49.972;8.242;2023-10-09T00:57:44;15.60;99.90
47857;DHT22;33618;49.972;8.242;2023-10-09T01:00:24;15.40;99.90
47857;DHT22;33618;49.972;8.242;2023-10-09T01:03:20;15.40;99.90
47857;DHT22;33618;49.972;8.242;2023-10-09T01:05:52;15.30;99.90
47857;DHT22;33618;49.972;8.242;2023-10-09T01:08:28;15.20;99.90
47857;DHT22;33618;49.972;8.242;2023-10-09T01:11:10;15.10;99.90
47857;DHT22;33618;49.972;8.242;2023-10-09T01:13:46;15.10;99.90
47857;DHT22;33618;49.972;8.242;2023-10-09T01:16:17;15.20;99.90
47857;DHT22;33618;49.972;8.242;2023-10-09T01:18:48;15.20;99.90
47857;DHT22;33618;49.972;8.242;2023-10-09T01:21:17;15.20;99.90
47857;DHT22;33618;49.972;8.242;2023-10-09T01:23:45;15.20;99.90
47857;DHT22;33618;49.972;8.242;2023-10-09T01:26:38;15.30;99.90
47857;DHT22;33618;49.972;8.242;2023-10-09T01:29:11;15.30;99.90
47857;DHT22;33618;49.972;8.242;2023-10-09T01:31:52;15.30;99.90
47857;DHT22;33618;49.972;8.242;2023-10-09T01:37:21;15.20;99.90
47857;DHT22;33618;49.972;8.242;2023-10-09T01:39:49;15.30;99.90
47857;DHT22;33618;49.972;8.242;2023-10-09T01:42:18;15.40;99.90
47857;DHT22;33618;49.972;8.242;2023-10-09T01:45:01;15.40;99.90
47857;DHT22;33618;49.972;8.242;2023-10-09T01:47:54;15.30;99.90
47857;DHT22;33618;49.972;8.242;2023-10-09T01:50:22;15.30;99.90
47857;DHT22;33618;49.972;8.242;2023-10-09T01:52:51;15.40;99.90
47857;DHT22;33618;49.972;8.242;2023-10-09T01:55:19;15.40;99.90
47857;DHT22;33618;49.972;8.242;2023-10-09T01:58:04;15.40;99.90
47857;DHT22;33618;49.972;8.242;2023-10-09T02:00:54;15.30;99.90
47857;DHT22;33618;49.972;8.242;2023-10-09T02:03:28;15.30;99.90
47857;DHT22;33618;49.972;8.242;2023-10-09T02:06:03;15.30;99.90
47857;DHT22;33618;49.972;8.242;2023-10-09T02:08:32;15.30;99.90
47857;DHT22;33618;49.972;8.242;2023-10-09T02:11:03;15.40;99.90
47857;DHT22;33618;49.972;8.242;2023-10-09T02:13:30;15.40;99.90
47857;DHT22;33618;49.972;8.242;2023-10-09T02:15:59;15.50;99.90
47857;DHT22;33618;49.972;8.242;2023-10-09T02:18:40;15.50;99.90
47857;DHT22;33618;49.972;8.242;2023-10-09T02:21:20;15.30;99.90
47857;DHT22;33618;49.972;8.242;2023-10-09T02:24:02;15.20;99.90
47857;DHT22;33618;49.972;8.242;2023-10-09T02:26:33;15.10;99.90
47857;DHT22;33618;49.972;8.242;2023-10-09T02:29:06;15.10;99.90
47857;DHT22;33618;49.972;8.242;2023-10-09T02:31:35;15.00;99.90
47857;DHT22;33618;49.972;8.242;2023-10-09T02:34:08;14.90;99.90
47857;DHT22;33618;49.972;8.242;2023-10-09T02:36:35;15.00;99.90
47857;DHT22;33618;49.972;8.242;2023-10-09T02:39:05;15.00;99.90
47857;DHT22;33618;49.972;8.242;2023-10-09T02:41:33;14.90;99.90
47857;DHT22;33618;49.972;8.242;2023-10-09T02:44:01;14.90;99.90
47857;DHT22;33618;49.972;8.242;2023-10-09T02:46:38;14.80;99.90
47857;DHT22;33618;49.972;8.242;2023-10-09T02:49:07;14.80;99.90
47857;DHT22;33618;49.972;8.242;2023-10-09T02:51:37;14.70;99.90
47857;DHT22;33618;49.972;8.242;2023-10-09T02:54:15;14.80;99.90
47857;DHT22;33618;49.972;8.242;2023-10-09T02:56:51;14.80;99.90
47857;DHT22;33618;49.972;8.242;2023-10-09T02:59:35;14.80;99.90
47857;DHT22;33618;49.972;8.242;2023-10-09T03:02:05;14.70;99.90
47857;DHT22;33618;49.972;8.242;2023-10-09T03:04:32;14.80;99.90
47857;DHT22;33618;49.972;8.242;2023-10-09T03:07:00;14.80;99.90
47857;DHT22;33618;49.972;8.242;2023-10-09T03:09:28;14.90;99.90
47857;DHT22;33618;49.972;8.242;2023-10-09T03:11:57;15.00;99.90
47857;DHT22;33618;49.972;8.242;2023-10-09T03:14:35;15.00;99.90
47857;DHT22;33618;49.972;8.242;2023-10-09T03:17:05;15.10;99.90
47857;DHT22;33618;49.972;8.242;2023-10-09T03:19:34;15.10;99.90
47857;DHT22;33618;49.972;8.242;2023-10-09T03:22:07;15.00;99.90
47857;DHT22;33618;49.972;8.242;2023-10-09T03:24:39;15.00;99.90
47857;DHT22;33618;49.972;8.242;2023-10-09T03:27:16;15.10;99.90
47857;DHT22;33618;49.972;8.242;2023-10-09T03:29:43;15.20;99.90
47857;DHT22;33618;49.972;8.242;2023-10-09T03:32:17;15.20;99.90
47857;DHT22;33618;49.972;8.242;2023-10-09T03:34:43;15.10;99.90
47857;DHT22;33618;49.972;8.242;2023-10-09T03:37:11;15.00;99.90
47857;DHT22;33618;49.972;8.242;2023-10-09T03:40:02;14.90;99.90
47857;DHT22;33618;49.972;8.242;2023-10-09T03:42:31;14.90;99.90
47857;DHT22;33618;49.972;8.242;2023-10-09T03:45:00;14.90;99.90
47857;DHT22;33618;49.972;8.242;2023-10-09T03:47:27;14.90;99.90
47857;DHT22;33618;49.972;8.242;2023-10-09T03:49:54;14.90;99.90
47857;DHT22;33618;49.972;8.242;2023-10-09T03:52:22;15.00;99.90
47857;DHT22;33618;49.972;8.242;2023-10-09T03:54:53;15.00;99.90
47857;DHT22;33618;49.972;8.242;2023-10-09T03:57:22;15.00;99.90
47857;DHT22;33618;49.972;8.242;2023-10-09T03:59:50;15.00;99.90
47857;DHT22;33618;49.972;8.242;2023-10-09T04:02:19;15.00;99.90
47857;DHT22;33618;49.972;8.242;2023-10-09T04:04:48;15.10;99.90
47857;DHT22;33618;49.972;8.242;2023-10-09T04:07:17;15.10;99.90
47857;DHT22;33618;49.972;8.242;2023-10-09T04:09:44;15.00;99.90
47857;DHT22;33618;49.972;8.242;2023-10-09T04:12:15;15.00;99.90
47857;DHT22;33618;49.972;8.242;2023-10-09T04:14:51;15.00;99.90
47857;DHT22;33618;49.972;8.242;2023-10-09T04:17:22;15.00;99.90
47857;DHT22;33618;49.972;8.242;2023-10-09T04:19:52;15.10;99.90
47857;DHT22;33618;49.972;8.242;2023-10-09T04:22:38;15.10;99.90
47857;DHT22;33618;49.972;8.242;2023-10-09T04:25:18;14.90;99.90
47857;DHT22;33618;49.972;8.242;2023-10-09T04:28:10;14.80;99.90
47857;DHT22;33618;49.972;8.242;2023-10-09T04:30:43;14.80;99.90
47857;DHT22;33618;49.972;8.242;2023-10-09T04:33:10;14.80;99.90
47857;DHT22;33618;49.972;8.242;2023-10-09T04:38:47;14.70;99.90
47857;DHT22;33618;49.972;8.242;2023-10-09T04:41:30;14.70;99.90
47857;DHT22;33618;49.972;8.242;2023-10-09T04:44:09;14.60;99.90
47857;DHT22;33618;49.972;8.242;2023-10-09T04:46:48;14.60;99.90
47857;DHT22;33618;49.972;8.242;2023-10-09T04:49:38;14.70;99.90
47857;DHT22;33618;49.972;8.242;2023-10-09T04:52:29;14.70;99.90
47857;DHT22;33618;49.972;8.242;2023-10-09T04:54:58;14.60;99.90
47857;DHT22;33618;49.972;8.242;2023-10-09T04:57:41;14.60;99.90
47857;DHT22;33618;49.972;8.242;2023-10-09T05:00:14;14.60;99.90
47857;DHT22;33618;49.972;8.242;2023-10-09T05:02:56;14.60;99.90
47857;DHT22;33618;49.972;8.242;2023-10-09T05:05:31;14.70;99.90
47857;DHT22;33618;49.972;8.242;2023-10-09T05:08:04;14.70;99.90
47857;DHT22;33618;49.972;8.242;2023-10-09T05:10:59;14.70;99.90
47857;DHT22;33618;49.972;8.242;2023-10-09T05:13:32;14.60;99.90
47857;DHT22;33618;49.972;8.242;2023-10-09T05:16:19;14.70;99.90
47857;DHT22;33618;49.972;8.242;2023-10-09T05:18:54;14.80;99.90
47857;DHT22;33618;49.972;8.242;2023-10-09T05:21:30;14.70;99.90
47857;DHT22;33618;49.972;8.242;2023-10-09T05:23:59;14.70;99.90
47857;DHT22;33618;49.972;8.242;2023-10-09T05:26:49;14.80;99.90
47857;DHT22;33618;49.972;8.242;2023-10-09T05:31:47;14.90;99.90
47857;DHT22;33618;49.972;8.242;2023-10-09T05:34:32;14.90;99.90
47857;DHT22;33618;49.972;8.242;2023-10-09T05:37:18;14.90;99.90
47857;DHT22;33618;49.972;8.242;2023-10-09T05:40:05;14.90;99.90
47857;DHT22;33618;49.972;8.242;2023-10-09T05:42:46;14.90;99.90
47857;DHT22;33618;49.972;8.242;2023-10-09T05:45:25;14.90;99.90
47857;DHT22;33618;49.972;8.242;2023-10-09T05:48:10;14.80;99.90
47857;DHT22;33618;49.972;8.242;2023-10-09T05:50:40;14.70;99.90
47857;DHT22;33618;49.972;8.242;2023-10-09T05:53:25;14.60;99.90
47857;DHT22;33618;49.972;8.242;2023-10-09T05:56:11;14.50;99.90
47857;DHT22;33618;49.972;8.242;2023-10-09T05:58:57;14.50;99.90
47857;DHT22;33618;49.972;8.242;2023-10-09T06:01:33;14.50;99.90
47857;DHT22;33618;49.972;8.242;2023-10-09T06:04:18;14.40;99.90
47857;DHT22;33618;49.972;8.242;2023-10-09T06:06:47;14.40;99.90
47857;DHT22;33618;49.972;8.242;2023-10-09T06:09:23;14.40;99.90
47857;DHT22;33618;49.972;8.242;2023-10-09T06:12:01;14.40;99.90
47857;DHT22;33618;49.972;8.242;2023-10-09T06:14:46;14.40;99.90
47857;DHT22;33618;49.972;8.242;2023-10-09T06:17:16;14.50;99.90
47857;DHT22;33618;49.972;8.242;2023-10-09T06:20:10;14.50;99.90
47857;DHT22;33618;49.972;8.242;2023-10-09T06:22:56;14.40;99.90
47857;DHT22;33618;49.972;8.242;2023-10-09T06:25:23;14.30;99.90
47857;DHT22;33618;49.972;8.242;2023-10-09T06:27:59;14.40;99.90
47857;DHT22;33618;49.972;8.242;2023-10-09T06:30:26;14.40;99.90
47857;DHT22;33618;49.972;8.242;2023-10-09T06:32:54;14.40;99.90
47857;DHT22;33618;49.972;8.242;2023-10-09T06:35:21;14.40;99.90
47857;DHT22;33618;49.972;8.242;2023-10-09T06:37:49;14.40;99.90
47857;DHT22;33618;49.972;8.242;2023-10-09T06:40:39;14.40;99.90
47857;DHT22;33618;49.972;8.242;2023-10-09T06:43:15;14.40;99.90
47857;DHT22;33618;49.972;8.242;2023-10-09T06:45:55;14.40;99.90
47857;DHT22;33618;49.972;8.242;2023-10-09T06:48:25;14.40;99.90
47857;DHT22;33618;49.972;8.242;2023-10-09T06:51:06;14.50;99.90
47857;DHT22;33618;49.972;8.242;2023-10-09T06:53:55;14.60;99.90
47857;DHT22;33618;49.972;8.242;2023-10-09T06:56:27;14.60;99.90
47857;DHT22;33618;49.972;8.242;2023-10-09T06:59:02;14.60;99.90
47857;DHT22;33618;49.972;8.242;2023-10-09T07:01:48;14.60;99.90
47857;DHT22;33618;49.972;8.242;2023-10-09T07:04:37;14.70;99.90
47857;DHT22;33618;49.972;8.242;2023-10-09T07:07:04;14.70;99.90
47857;DHT22;33618;49.972;8.242;2023-10-09T07:09:37;14.80;99.90
47857;DHT22;33618;49.972;8.242;2023-10-09T07:12:32;14.80;99.90
47857;DHT22;33618;49.972;8.242;2023-10-09T07:15:01;14.80;99.90
47857;DHT22;33618;49.972;8.242;2023-10-09T07:17:28;14.90;99.90
47857;DHT22;33618;49.972;8.242;2023-10-09T07:20:01;15.00;99.90
47857;DHT22;33618;49.972;8.242;2023-10-09T07:22:42;15.00;99.90
47857;DHT22;33618;49.972;8.242;2023-10-09T07:25:23;15.10;99.90
47857;DHT22;33618;49.972;8.242;2023-10-09T07:28:10;15.10;99.90
47857;DHT22;33618;49.972;8.242;2023-10-09T07:30:56;15.30;99.90
47857;DHT22;33618;49.972;8.242;2023-10-09T07:33:26;15.30;99.90
47857;DHT22;33618;49.972;8.242;2023-10-09T07:36:03;15.30;99.90
47857;DHT22;33618;49.972;8.242;2023-10-09T07:38:34;15.40;99.90
47857;DHT22;33618;49.972;8.242;2023-10-09T07:41:05;15.50;99.90
47857;DHT22;33618;49.972;8.242;2023-10-09T07:43:36;15.60;99.90
47857;DHT22;33618;49.972;8.242;2023-10-09T07:46:07;15.70;99.90
47857;DHT22;33618;49.972;8.242;2023-10-09T07:48:55;15.70;99.90
47857;DHT22;33618;49.972;8.242;2023-10-09T07:51:24;15.90;99.90
47857;DHT22;33618;49.972;8.242;2023-10-09T07:53:59;15.80;99.90
47857;DHT22;33618;49.972;8.242;2023-10-09T07:56:36;16.00;99.90
47857;DHT22;33618;49.972;8.242;2023-10-09T07:59:16;16.10;99.90
47857;DHT22;33618;49.972;8.242;2023-10-09T08:01:50;16.20;99.90
47857;DHT22;33618;49.972;8.242;2023-10-09T08:04:22;16.30;99.90
47857;DHT22;33618;49.972;8.242;2023-10-09T08:07:08;16.40;99.90
47857;DHT22;33618;49.972;8.242;2023-10-09T08:09:56;16.50;99.90
47857;DHT22;33618;49.972;8.242;2023-10-09T08:12:42;16.60;99.90
47857;DHT22;33618;49.972;8.242;2023-10-09T08:15:25;16.80;99.90
47857;DHT22;33618;49.972;8.242;2023-10-09T08:18:15;17.00;99.90
47857;DHT22;33618;49.972;8.242;2023-10-09T08:20:55;17.10;99.90
47857;DHT22;33618;49.972;8.242;2023-10-09T08:23:25;17.20;99.90
47857;DHT22;33618;49.972;8.242;2023-10-09T08:26:16;17.40;99.90
47857;DHT22;33618;49.972;8.242;2023-10-09T08:28:56;17.50;99.90
47857;DHT22;33618;49.972;8.242;2023-10-09T08:31:43;17.50;99.90
47857;DHT22;33618;49.972;8.242;2023-10-09T08:34:14;17.60;99.60
47857;DHT22;33618;49.972;8.242;2023-10-09T08:36:56;17.60;99.20
47857;DHT22;33618;49.972;8.242;2023-10-09T08:39:24;17.70;97.40
47857;DHT22;33618;49.972;8.242;2023-10-09T08:41:55;17.60;96.70
47857;DHT22;33618;49.972;8.242;2023-10-09T08:44:25;17.70;96.30
47857;DHT22;33618;49.972;8.242;2023-10-09T08:47:00;17.70;96.10
47857;DHT22;33618;49.972;8.242;2023-10-09T08:49:28;17.80;95.80
47857;DHT22;33618;49.972;8.242;2023-10-09T08:51:55;17.90;95.60
47857;DHT22;33618;49.972;8.242;2023-10-09T08:54:23;18.00;95.30
47857;DHT22;33618;49.972;8.242;2023-10-09T08:56:50;18.10;95.10
47857;DHT22;33618;49.972;8.242;2023-10-09T08:59:18;18.30;94.70
47857;DHT22;33618;49.972;8.242;2023-10-09T09:01:50;18.40;94.60
47857;DHT22;33618;49.972;8.242;2023-10-09T09:04:36;18.40;94.30
47857;DHT22;33618;49.972;8.242;2023-10-09T09:07:21;18.50;94.50
47857;DHT22;33618;49.972;8.242;2023-10-09T09:09:55;18.50;94.30
47857;DHT22;33618;49.972;8.242;2023-10-09T09:12:24;18.50;94.50
47857;DHT22;33618;49.972;8.242;2023-10-09T09:14:51;18.50;95.10
47857;DHT22;33618;49.972;8.242;2023-10-09T09:17:30;18.50;95.70
47857;DHT22;33618;49.972;8.242;2023-10-09T09:19:59;18.50;95.90
47857;DHT22;33618;49.972;8.242;2023-10-09T09:22:26;18.50;96.10
47857;DHT22;33618;49.972;8.242;2023-10-09T09:24:59;18.60;96.00
47857;DHT22;33618;49.972;8.242;2023-10-09T09:27:46;18.60;95.70
47857;DHT22;33618;49.972;8.242;2023-10-09T09:30:27;18.70;96.10
47857;DHT22;33618;49.972;8.242;2023-10-09T09:35:58;18.70;96.20
47857;DHT22;33618;49.972;8.242;2023-10-09T09:38:26;18.70;96.20
47857;DHT22;33618;49.972;8.242;2023-10-09T09:40:57;18.70;96.00
47857;DHT22;33618;49.972;8.242;2023-10-09T09:43:25;18.80;95.80
47857;DHT22;33618;49.972;8.242;2023-10-09T09:45:53;19.00;95.80
47857;DHT22;33618;49.972;8.242;2023-10-09T09:48:26;19.10;95.00
47857;DHT22;33618;49.972;8.242;2023-10-09T09:50:53;19.30;95.20
47857;DHT22;33618;49.972;8.242;2023-10-09T09:53:21;19.50;93.90
47857;DHT22;33618;49.972;8.242;2023-10-09T09:55:51;19.60;94.10
47857;DHT22;33618;49.972;8.242;2023-10-09T09:58:26;19.60;94.70
47857;DHT22;33618;49.972;8.242;2023-10-09T10:01:04;19.70;94.90
47857;DHT22;33618;49.972;8.242;2023-10-09T10:03:44;19.70;94.40
47857;DHT22;33618;49.972;8.242;2023-10-09T10:06:13;19.70;94.80
47857;DHT22;33618;49.972;8.242;2023-10-09T10:08:43;19.80;94.70
47857;DHT22;33618;49.972;8.242;2023-10-09T10:11:40;20.00;94.20
47857;DHT22;33618;49.972;8.242;2023-10-09T10:14:14;20.00;93.40
47857;DHT22;33618;49.972;8.242;2023-10-09T10:17:08;20.10;94.10
47857;DHT22;33618;49.972;8.242;2023-10-09T10:22:28;20.30;92.40
47857;DHT22;33618;49.972;8.242;2023-10-09T10:24:57;20.30;92.30
47857;DHT22;33618;49.972;8.242;2023-10-09T10:27:26;20.40;92.10
47857;DHT22;33618;49.972;8.242;2023-10-09T10:35:20;20.60;91.90
47857;DHT22;33618;49.972;8.242;2023-10-09T10:37:59;20.70;91.80
47857;DHT22;33618;49.972;8.242;2023-10-09T10:40:35;20.70;91.50
47857;DHT22;33618;49.972;8.242;2023-10-09T10:43:07;20.70;91.50
47857;DHT22;33618;49.972;8.242;2023-10-09T10:45:40;20.80;91.50
47857;DHT22;33618;49.972;8.242;2023-10-09T10:48:12;20.90;91.10
47857;DHT22;33618;49.972;8.242;2023-10-09T10:50:56;20.90;91.00
47857;DHT22;33618;49.972;8.242;2023-10-09T10:53:24;20.80;90.40
47857;DHT22;33618;49.972;8.242;2023-10-09T10:56:02;20.90;90.40
47857;DHT22;33618;49.972;8.242;2023-10-09T10:58:42;21.10;90.40
47857;DHT22;33618;49.972;8.242;2023-10-09T11:01:21;21.50;90.10
47857;DHT22;33618;49.972;8.242;2023-10-09T11:03:52;21.70;89.50
47857;DHT22;33618;49.972;8.242;2023-10-09T11:06:31;22.00;88.10
47857;DHT22;33618;49.972;8.242;2023-10-09T11:09:06;22.00;87.80
47857;DHT22;33618;49.972;8.242;2023-10-09T11:11:50;22.00;88.30
47857;DHT22;33618;49.972;8.242;2023-10-09T11:14:22;22.10;88.20
47857;DHT22;33618;49.972;8.242;2023-10-09T11:16:52;22.30;87.20
47857;DHT22;33618;49.972;8.242;2023-10-09T11:19:25;22.40;86.10
47857;DHT22;33618;49.972;8.242;2023-10-09T11:21:59;22.40;85.00
47857;DHT22;33618;49.972;8.242;2023-10-09T11:24:34;22.50;86.10
47857;DHT22;33618;49.972;8.242;2023-10-09T11:27:03;22.60;83.90
47857;DHT22;33618;49.972;8.242;2023-10-09T11:29:35;22.90;83.50
47857;DHT22;33618;49.972;8.242;2023-10-09T11:32:19;23.30;82.40
47857;DHT22;33618;49.972;8.242;2023-10-09T11:34:50;24.10;81.40
47857;DHT22;33618;49.972;8.242;2023-10-09T11:37:23;24.40;79.90
47857;DHT22;33618;49.972;8.242;2023-10-09T11:39:56;24.60;78.00
47857;DHT22;33618;49.972;8.242;2023-10-09T11:42:27;24.50;77.50
47857;DHT22;33618;49.972;8.242;2023-10-09T11:45:23;24.30;77.80
47857;DHT22;33618;49.972;8.242;2023-10-09T11:47:52;24.10;77.70
47857;DHT22;33618;49.972;8.242;2023-10-09T11:53:11;24.10;77.80
47857;DHT22;33618;49.972;8.242;2023-10-09T11:55:50;24.00;78.70
47857;DHT22;33618;49.972;8.242;2023-10-09T11:58:21;23.80;77.70
47857;DHT22;33618;49.972;8.242;2023-10-09T12:00:54;23.80;78.50
47857;DHT22;33618;49.972;8.242;2023-10-09T12:03:27;23.80;78.60
47857;DHT22;33618;49.972;8.242;2023-10-09T12:06:01;24.00;76.50
47857;DHT22;33618;49.972;8.242;2023-10-09T12:08:33;24.40;77.70
47857;DHT22;33618;49.972;8.242;2023-10-09T12:11:03;24.80;75.20
47857;DHT22;33618;49.972;8.242;2023-10-09T12:13:30;25.20;73.70
47857;DHT22;33618;49.972;8.242;2023-10-09T12:15:58;25.50;72.70
47857;DHT22;33618;49.972;8.242;2023-10-09T12:18:25;25.50;72.70
47857;DHT22;33618;49.972;8.242;2023-10-09T12:20:52;25.90;72.80
47857;DHT22;33618;49.972;8.242;2023-10-09T12:23:22;25.90;72.40
47857;DHT22;33618;49.972;8.242;2023-10-09T12:25:54;25.80;73.30
47857;DHT22;33618;49.972;8.242;2023-10-09T12:28:23;25.70;73.40
47857;DHT22;33618;49.972;8.242;2023-10-09T12:30:50;25.60;72.90
47857;DHT22;33618;49.972;8.242;2023-10-09T12:33:19;25.30;71.10
47857;DHT22;33618;49.972;8.242;2023-10-09T12:35:47;25.00;71.60
47857;DHT22;33618;49.972;8.242;2023-10-09T12:38:14;24.90;71.10
47857;DHT22;33618;49.972;8.242;2023-10-09T12:40:46;24.60;70.70
47857;DHT22;33618;49.972;8.242;2023-10-09T12:43:18;24.40;71.10
47857;DHT22;33618;49.972;8.242;2023-10-09T12:45:46;24.20;71.50
47857;DHT22;33618;49.972;8.242;2023-10-09T12:48:13;24.20;72.20
47857;DHT22;33618;49.972;8.242;2023-10-09T12:50:41;24.20;71.00
47857;DHT22;33618;49.972;8.242;2023-10-09T12:53:08;24.10;71.60
47857;DHT22;33618;49.972;8.242;2023-10-09T12:55:39;24.10;71.80
47857;DHT22;33618;49.972;8.242;2023-10-09T12:58:11;24.20;71.60
47857;DHT22;33618;49.972;8.242;2023-10-09T13:00:43;24.30;71.80
47857;DHT22;33618;49.972;8.242;2023-10-09T13:03:17;24.20;71.60
47857;DHT22;33618;49.972;8.242;2023-10-09T13:05:52;24.10;71.20
47857;DHT22;33618;49.972;8.242;2023-10-09T13:08:23;24.20;71.00
47857;DHT22;33618;49.972;8.242;2023-10-09T13:10:52;24.30;71.90
47857;DHT22;33618;49.972;8.242;2023-10-09T13:13:28;24.30;71.90
47857;DHT22;33618;49.972;8.242;2023-10-09T13:16:13;24.40;72.50
47857;DHT22;33618;49.972;8.242;2023-10-09T13:18:47;24.50;72.10
47857;DHT22;33618;49.972;8.242;2023-10-09T13:21:22;24.50;72.60
47857;DHT22;33618;49.972;8.242;2023-10-09T13:23:50;24.60;72.70
47857;DHT22;33618;49.972;8.242;2023-10-09T13:26:18;24.60;72.30
47857;DHT22;33618;49.972;8.242;2023-10-09T13:28:49;24.70;72.70
47857;DHT22;33618;49.972;8.242;2023-10-09T13:31:16;24.70;73.70
47857;DHT22;33618;49.972;8.242;2023-10-09T13:33:44;24.80;73.80
47857;DHT22;33618;49.972;8.242;2023-10-09T13:36:13;24.80;73.00
47857;DHT22;33618;49.972;8.242;2023-10-09T13:38:46;24.90;72.70
47857;DHT22;33618;49.972;8.242;2023-10-09T13:41:13;24.80;73.40
47857;DHT22;33618;49.972;8.242;2023-10-09T13:43:41;24.90;73.20
47857;DHT22;33618;49.972;8.242;2023-10-09T13:46:10;24.90;73.50
47857;DHT22;33618;49.972;8.242;2023-10-09T13:48:42;24.90;74.00
47857;DHT22;33618;49.972;8.242;2023-10-09T13:51:10;24.90;73.70
47857;DHT22;33618;49.972;8.242;2023-10-09T13:53:45;25.00;73.90
47857;DHT22;33618;49.972;8.242;2023-10-09T13:56:13;25.10;74.40
47857;DHT22;33618;49.972;8.242;2023-10-09T13:58:50;25.30;73.90
47857;DHT22;33618;49.972;8.242;2023-10-09T14:01:18;25.40;73.90
47857;DHT22;33618;49.972;8.242;2023-10-09T14:03:58;25.50;73.60
47857;DHT22;33618;49.972;8.242;2023-10-09T14:06:27;25.60;73.50
47857;DHT22;33618;49.972;8.242;2023-10-09T14:09:02;25.70;73.40
47857;DHT22;33618;49.972;8.242;2023-10-09T14:11:36;25.90;73.20
47857;DHT22;33618;49.972;8.242;2023-10-09T14:14:06;25.90;73.30
47857;DHT22;33618;49.972;8.242;2023-10-09T14:16:43;26.00;73.20
47857;DHT22;33618;49.972;8.242;2023-10-09T14:19:11;26.00;72.70
47857;DHT22;33618;49.972;8.242;2023-10-09T14:21:40;25.90;73.10
47857;DHT22;33618;49.972;8.242;2023-10-09T14:24:08;25.90;73.10
47857;DHT22;33618;49.972;8.242;2023-10-09T14:26:48;25.90;73.50
47857;DHT22;33618;49.972;8.242;2023-10-09T14:29:18;25.80;73.50
47857;DHT22;33618;49.972;8.242;2023-10-09T14:31:47;25.70;73.40
47857;DHT22;33618;49.972;8.242;2023-10-09T14:34:27;25.80;73.60
47857;DHT22;33618;49.972;8.242;2023-10-09T14:37:03;25.60;74.00
47857;DHT22;33618;49.972;8.242;2023-10-09T14:39:30;25.70;73.90
47857;DHT22;33618;49.972;8.242;2023-10-09T14:41:56;25.70;73.80
47857;DHT22;33618;49.972;8.242;2023-10-09T14:44:28;25.60;74.40
47857;DHT22;33618;49.972;8.242;2023-10-09T14:46:57;25.50;73.80
47857;DHT22;33618;49.972;8.242;2023-10-09T14:49:25;25.50;74.30
47857;DHT22;33618;49.972;8.242;2023-10-09T14:51:52;25.50;74.20
47857;DHT22;33618;49.972;8.242;2023-10-09T14:54:19;25.40;74.30
47857;DHT22;33618;49.972;8.242;2023-10-09T14:56:48;25.40;74.60
47857;DHT22;33618;49.972;8.242;2023-10-09T14:59:17;25.30;74.90
47857;DHT22;33618;49.972;8.242;2023-10-09T15:01:46;25.30;75.50
47857;DHT22;33618;49.972;8.242;2023-10-09T15:04:14;25.20;75.00
47857;DHT22;33618;49.972;8.242;2023-10-09T15:06:42;25.20;75.50
47857;DHT22;33618;49.972;8.242;2023-10-09T15:09:09;25.20;75.50
47857;DHT22;33618;49.972;8.242;2023-10-09T15:11:36;25.10;76.00
47857;DHT22;33618;49.972;8.242;2023-10-09T15:14:07;25.10;76.10
47857;DHT22;33618;49.972;8.242;2023-10-09T15:16:33;25.00;76.00
47857;DHT22;33618;49.972;8.242;2023-10-09T15:19:01;24.90;76.60
47857;DHT22;33618;49.972;8.242;2023-10-09T15:21:30;24.80;77.90
47857;DHT22;33618;49.972;8.242;2023-10-09T15:23:59;24.70;78.90
47857;DHT22;33618;49.972;8.242;2023-10-09T15:26:26;24.60;79.60
47857;DHT22;33618;49.972;8.242;2023-10-09T15:29:01;24.50;80.40
47857;DHT22;33618;49.972;8.242;2023-10-09T15:31:30;24.40;81.60
47857;DHT22;33618;49.972;8.242;2023-10-09T15:33:59;24.20;80.90
47857;DHT22;33618;49.972;8.242;2023-10-09T15:36:26;24.10;80.70
47857;DHT22;33618;49.972;8.242;2023-10-09T15:38:55;23.90;80.50
47857;DHT22;33618;49.972;8.242;2023-10-09T15:41:27;23.70;81.40
47857;DHT22;33618;49.972;8.242;2023-10-09T15:43:56;23.60;81.70
47857;DHT22;33618;49.972;8.242;2023-10-09T15:46:24;23.50;81.70
47857;DHT22;33618;49.972;8.242;2023-10-09T15:48:53;23.50;82.10
47857;DHT22;33618;49.972;8.242;2023-10-09T15:51:20;23.40;81.90
47857;DHT22;33618;49.972;8.242;2023-10-09T15:53:47;23.30;82.10
47857;DHT22;33618;49.972;8.242;2023-10-09T15:56:14;23.30;82.50
47857;DHT22;33618;49.972;8.242;2023-10-09T15:58:44;23.20;82.50
47857;DHT22;33618;49.972;8.242;2023-10-09T16:01:14;23.30;82.20
47857;DHT22;33618;49.972;8.242;2023-10-09T16:03:42;23.10;81.70
47857;DHT22;33618;49.972;8.242;2023-10-09T16:06:10;23.00;82.80
47857;DHT22;33618;49.972;8.242;2023-10-09T16:08:43;22.90;83.20
47857;DHT22;33618;49.972;8.242;2023-10-09T16:11:19;22.70;83.40
47857;DHT22;33618;49.972;8.242;2023-10-09T16:13:46;22.70;84.00
47857;DHT22;33618;49.972;8.242;2023-10-09T16:16:13;22.50;84.60
47857;DHT22;33618;49.972;8.242;2023-10-09T16:18:40;22.40;84.90
47857;DHT22;33618;49.972;8.242;2023-10-09T16:21:07;22.30;85.40
47857;DHT22;33618;49.972;8.242;2023-10-09T16:23:38;22.20;85.60
47857;DHT22;33618;49.972;8.242;2023-10-09T16:26:05;22.10;85.80
47857;DHT22;33618;49.972;8.242;2023-10-09T16:28:34;22.00;85.70
47857;DHT22;33618;49.972;8.242;2023-10-09T16:31:02;21.90;85.50
47857;DHT22;33618;49.972;8.242;2023-10-09T16:33:29;21.90;85.40